sensor_id;sensor_type;location;lat;lon;timestamp;P1;durP1;ratioP1;P2;durP2;ratioP2
51459;SDS011;37534;39.772;2.718;2022-08-19T00:01:45;4.75;;;2.22;;
51459;SDS011;37534;39.772;2.718;2022-08-19T00:04:14;3.47;;;2.67;;
51459;SDS011;37534;39.772;2.718;2022-08-19T00:06:41;2.17;;;1.77;;
51459;SDS011;37534;39.772;2.718;2022-08-19T00:09:09;3.05;;;1.75;;
51459;SDS011;37534;39.772;2.718;2022-08-19T00:11:37;3.95;;;2.53;;
51459;SDS011;37534;39.772;2.718;2022-08-19T00:14:04;4.13;;;2.20;;
51459;SDS011;37534;39.772;2.718;2022-08-19T00:16:31;4.10;;;2.47;;
51459;SDS011;37534;39.772;2.718;2022-08-19T00:18:57;3.22;;;1.90;;
51459;SDS011;37534;39.772;2.718;2022-08-19T00:21:23;3.30;;;2.67;;
51459;SDS011;37534;39.772;2.718;2022-08-19T00:23:51;2.78;;;2.10;;
51459;SDS011;37534;39.772;2.718;2022-08-19T00:26:17;1.70;;;1.58;;
51459;SDS011;37534;39.772;2.718;2022-08-19T00:28:43;2.40;;;1.70;;
51459;SDS011;37534;39.772;2.718;2022-08-19T00:31:08;2.13;;;1.92;;
51459;SDS011;37534;39.772;2.718;2022-08-19T00:33:34;4.03;;;1.90;;
51459;SDS011;37534;39.772;2.718;2022-08-19T00:36:01;2.30;;;1.73;;
51459;SDS011;37534;39.772;2.718;2022-08-19T00:38:29;7.82;;;2.60;;
51459;SDS011;37534;39.772;2.718;2022-08-19T00:40:54;13.27;;;2.17;;
51459;SDS011;37534;39.772;2.718;2022-08-19T00:43:21;13.15;;;1.90;;
51459;SDS011;37534;39.772;2.718;2022-08-19T00:45:49;3.95;;;1.67;;
51459;SDS011;37534;39.772;2.718;2022-08-19T00:48:16;5.30;;;2.35;;
51459;SDS011;37534;39.772;2.718;2022-08-19T00:50:42;1.92;;;1.23;;
51459;SDS011;37534;39.772;2.718;2022-08-19T00:53:09;3.80;;;1.77;;
51459;SDS011;37534;39.772;2.718;2022-08-19T00:55:37;2.90;;;1.67;;
51459;SDS011;37534;39.772;2.718;2022-08-19T00:58:06;4.00;;;1.35;;
51459;SDS011;37534;39.772;2.718;2022-08-19T01:00:36;8.95;;;1.52;;
51459;SDS011;37534;39.772;2.718;2022-08-19T01:03:03;1.92;;;1.08;;
51459;SDS011;37534;39.772;2.718;2022-08-19T01:05:31;2.35;;;1.05;;
51459;SDS011;37534;39.772;2.718;2022-08-19T01:07:57;5.85;;;1.60;;
51459;SDS011;37534;39.772;2.718;2022-08-19T01:10:27;3.42;;;1.50;;
51459;SDS011;37534;39.772;2.718;2022-08-19T01:12:55;1.88;;;1.25;;
51459;SDS011;37534;39.772;2.718;2022-08-19T01:15:23;2.65;;;1.30;;
51459;SDS011;37534;39.772;2.718;2022-08-19T01:17:54;3.90;;;2.03;;
51459;SDS011;37534;39.772;2.718;2022-08-19T01:20:22;6.95;;;2.00;;
51459;SDS011;37534;39.772;2.718;2022-08-19T01:22:50;4.75;;;1.38;;
51459;SDS011;37534;39.772;2.718;2022-08-19T01:25:25;2.70;;;1.33;;
51459;SDS011;37534;39.772;2.718;2022-08-19T01:27:54;3.25;;;1.70;;
51459;SDS011;37534;39.772;2.718;2022-08-19T01:30:25;1.60;;;1.20;;
51459;SDS011;37534;39.772;2.718;2022-08-19T01:32:53;1.90;;;1.45;;
51459;SDS011;37534;39.772;2.718;2022-08-19T01:35:20;7.28;;;1.20;;
51459;SDS011;37534;39.772;2.718;2022-08-19T01:37:53;3.10;;;1.58;;
51459;SDS011;37534;39.772;2.718;2022-08-19T01:40:21;3.83;;;1.88;;
51459;SDS011;37534;39.772;2.718;2022-08-19T01:42:49;3.13;;;1.60;;
51459;SDS011;37534;39.772;2.718;2022-08-19T01:45:15;2.38;;;1.40;;
51459;SDS011;37534;39.772;2.718;2022-08-19T01:47:41;5.55;;;1.88;;
51459;SDS011;37534;39.772;2.718;2022-08-19T01:50:08;3.50;;;2.00;;
51459;SDS011;37534;39.772;2.718;2022-08-19T01:52:38;2.47;;;1.80;;
51459;SDS011;37534;39.772;2.718;2022-08-19T01:55:05;6.05;;;1.55;;
51459;SDS011;37534;39.772;2.718;2022-08-19T01:57:33;2.58;;;1.50;;
51459;SDS011;37534;39.772;2.718;2022-08-19T01:59:59;3.13;;;1.63;;
51459;SDS011;37534;39.772;2.718;2022-08-19T02:02:28;2.13;;;1.50;;
51459;SDS011;37534;39.772;2.718;2022-08-19T02:04:53;1.50;;;1.40;;
51459;SDS011;37534;39.772;2.718;2022-08-19T02:07:22;2.35;;;1.40;;
51459;SDS011;37534;39.772;2.718;2022-08-19T02:09:48;5.57;;;1.42;;
51459;SDS011;37534;39.772;2.718;2022-08-19T02:12:13;1.48;;;1.33;;
51459;SDS011;37534;39.772;2.718;2022-08-19T02:14:39;2.70;;;1.52;;
51459;SDS011;37534;39.772;2.718;2022-08-19T02:17:05;2.05;;;1.70;;
51459;SDS011;37534;39.772;2.718;2022-08-19T02:19:30;1.83;;;1.70;;
51459;SDS011;37534;39.772;2.718;2022-08-19T02:21:58;7.10;;;1.80;;
51459;SDS011;37534;39.772;2.718;2022-08-19T02:24:24;9.25;;;2.03;;
51459;SDS011;37534;39.772;2.718;2022-08-19T02:26:50;2.58;;;1.75;;
51459;SDS011;37534;39.772;2.718;2022-08-19T02:29:16;6.65;;;1.90;;
51459;SDS011;37534;39.772;2.718;2022-08-19T02:31:41;6.93;;;2.53;;
51459;SDS011;37534;39.772;2.718;2022-08-19T02:34:07;4.50;;;1.55;;
51459;SDS011;37534;39.772;2.718;2022-08-19T02:36:32;3.50;;;1.83;;
51459;SDS011;37534;39.772;2.718;2022-08-19T02:38:58;4.68;;;1.77;;
51459;SDS011;37534;39.772;2.718;2022-08-19T02:41:28;2.83;;;1.67;;
51459;SDS011;37534;39.772;2.718;2022-08-19T02:43:57;4.35;;;2.03;;
51459;SDS011;37534;39.772;2.718;2022-08-19T02:46:25;1.52;;;1.42;;
51459;SDS011;37534;39.772;2.718;2022-08-19T02:48:53;2.35;;;1.92;;
51459;SDS011;37534;39.772;2.718;2022-08-19T02:51:22;4.00;;;2.05;;
51459;SDS011;37534;39.772;2.718;2022-08-19T02:53:59;1.85;;;1.48;;
51459;SDS011;37534;39.772;2.718;2022-08-19T02:56:25;4.75;;;1.52;;
51459;SDS011;37534;39.772;2.718;2022-08-19T02:58:52;1.90;;;1.60;;
51459;SDS011;37534;39.772;2.718;2022-08-19T03:01:20;4.15;;;1.70;;
51459;SDS011;37534;39.772;2.718;2022-08-19T03:03:48;3.45;;;1.60;;
51459;SDS011;37534;39.772;2.718;2022-08-19T03:06:14;2.97;;;1.35;;
51459;SDS011;37534;39.772;2.718;2022-08-19T03:08:41;4.68;;;1.90;;
51459;SDS011;37534;39.772;2.718;2022-08-19T03:11:18;2.45;;;1.90;;
51459;SDS011;37534;39.772;2.718;2022-08-19T03:13:47;11.23;;;1.75;;
51459;SDS011;37534;39.772;2.718;2022-08-19T03:16:16;4.53;;;2.10;;
51459;SDS011;37534;39.772;2.718;2022-08-19T03:18:43;3.38;;;1.48;;
51459;SDS011;37534;39.772;2.718;2022-08-19T03:21:09;3.45;;;1.40;;
51459;SDS011;37534;39.772;2.718;2022-08-19T03:23:39;2.45;;;1.38;;
51459;SDS011;37534;39.772;2.718;2022-08-19T03:26:05;2.17;;;1.60;;
51459;SDS011;37534;39.772;2.718;2022-08-19T03:28:31;7.43;;;2.40;;
51459;SDS011;37534;39.772;2.718;2022-08-19T03:31:01;7.78;;;2.75;;
51459;SDS011;37534;39.772;2.718;2022-08-19T03:33:32;3.47;;;1.88;;
51459;SDS011;37534;39.772;2.718;2022-08-19T03:35:59;1.95;;;1.63;;
51459;SDS011;37534;39.772;2.718;2022-08-19T03:38:37;2.25;;;1.67;;
51459;SDS011;37534;39.772;2.718;2022-08-19T03:41:06;4.10;;;1.60;;
51459;SDS011;37534;39.772;2.718;2022-08-19T03:43:34;4.78;;;2.22;;
51459;SDS011;37534;39.772;2.718;2022-08-19T03:46:04;3.85;;;2.08;;
51459;SDS011;37534;39.772;2.718;2022-08-19T03:48:32;3.05;;;1.67;;
51459;SDS011;37534;39.772;2.718;2022-08-19T03:50:59;3.72;;;2.03;;
51459;SDS011;37534;39.772;2.718;2022-08-19T03:53:26;2.45;;;1.90;;
51459;SDS011;37534;39.772;2.718;2022-08-19T03:55:53;2.05;;;1.50;;
51459;SDS011;37534;39.772;2.718;2022-08-19T03:58:19;1.95;;;1.38;;
51459;SDS011;37534;39.772;2.718;2022-08-19T04:00:45;13.13;;;1.85;;
51459;SDS011;37534;39.772;2.718;2022-08-19T04:03:11;4.50;;;2.08;;
51459;SDS011;37534;39.772;2.718;2022-08-19T04:05:36;10.55;;;2.00;;
51459;SDS011;37534;39.772;2.718;2022-08-19T04:08:03;3.35;;;2.30;;
51459;SDS011;37534;39.772;2.718;2022-08-19T04:10:30;2.25;;;2.05;;
51459;SDS011;37534;39.772;2.718;2022-08-19T04:13:05;6.13;;;2.60;;
51459;SDS011;37534;39.772;2.718;2022-08-19T04:15:32;2.75;;;2.15;;
51459;SDS011;37534;39.772;2.718;2022-08-19T04:20:31;4.50;;;2.10;;
51459;SDS011;37534;39.772;2.718;2022-08-19T04:22:56;2.42;;;1.60;;
51459;SDS011;37534;39.772;2.718;2022-08-19T04:25:22;7.35;;;2.08;;
51459;SDS011;37534;39.772;2.718;2022-08-19T04:27:48;2.75;;;2.00;;
51459;SDS011;37534;39.772;2.718;2022-08-19T04:30:14;6.72;;;2.00;;
51459;SDS011;37534;39.772;2.718;2022-08-19T04:32:39;7.25;;;1.88;;
51459;SDS011;37534;39.772;2.718;2022-08-19T04:35:06;5.65;;;2.50;;
51459;SDS011;37534;39.772;2.718;2022-08-19T04:37:31;3.08;;;1.85;;
51459;SDS011;37534;39.772;2.718;2022-08-19T04:39:58;6.75;;;2.15;;
51459;SDS011;37534;39.772;2.718;2022-08-19T04:42:43;3.33;;;2.05;;
51459;SDS011;37534;39.772;2.718;2022-08-19T04:45:10;5.88;;;1.58;;
51459;SDS011;37534;39.772;2.718;2022-08-19T04:47:38;2.95;;;2.28;;
51459;SDS011;37534;39.772;2.718;2022-08-19T04:50:06;2.60;;;1.70;;
51459;SDS011;37534;39.772;2.718;2022-08-19T04:52:33;3.40;;;1.70;;
51459;SDS011;37534;39.772;2.718;2022-08-19T04:54:59;2.63;;;2.35;;
51459;SDS011;37534;39.772;2.718;2022-08-19T04:57:25;3.03;;;2.08;;
51459;SDS011;37534;39.772;2.718;2022-08-19T04:59:54;2.90;;;1.98;;
51459;SDS011;37534;39.772;2.718;2022-08-19T05:02:21;2.70;;;2.13;;
51459;SDS011;37534;39.772;2.718;2022-08-19T05:04:59;3.50;;;1.90;;
51459;SDS011;37534;39.772;2.718;2022-08-19T05:07:26;3.63;;;2.42;;
51459;SDS011;37534;39.772;2.718;2022-08-19T05:09:52;3.70;;;2.03;;
51459;SDS011;37534;39.772;2.718;2022-08-19T05:12:17;3.60;;;2.20;;
51459;SDS011;37534;39.772;2.718;2022-08-19T05:14:44;2.42;;;1.88;;
51459;SDS011;37534;39.772;2.718;2022-08-19T05:17:12;3.63;;;1.90;;
51459;SDS011;37534;39.772;2.718;2022-08-19T05:19:38;3.75;;;2.10;;
51459;SDS011;37534;39.772;2.718;2022-08-19T05:22:22;2.67;;;2.22;;
51459;SDS011;37534;39.772;2.718;2022-08-19T05:24:57;8.60;;;1.98;;
51459;SDS011;37534;39.772;2.718;2022-08-19T05:27:22;5.20;;;2.45;;
51459;SDS011;37534;39.772;2.718;2022-08-19T05:29:48;6.78;;;2.63;;
51459;SDS011;37534;39.772;2.718;2022-08-19T05:32:14;4.63;;;2.72;;
51459;SDS011;37534;39.772;2.718;2022-08-19T05:34:39;4.75;;;3.08;;
51459;SDS011;37534;39.772;2.718;2022-08-19T05:37:05;3.08;;;2.65;;
51459;SDS011;37534;39.772;2.718;2022-08-19T05:39:33;2.83;;;2.35;;
51459;SDS011;37534;39.772;2.718;2022-08-19T05:42:02;6.85;;;2.67;;
51459;SDS011;37534;39.772;2.718;2022-08-19T05:44:32;4.00;;;2.42;;
51459;SDS011;37534;39.772;2.718;2022-08-19T05:46:59;4.97;;;2.75;;
51459;SDS011;37534;39.772;2.718;2022-08-19T05:49:28;5.00;;;2.25;;
51459;SDS011;37534;39.772;2.718;2022-08-19T05:51:54;12.05;;;3.17;;
51459;SDS011;37534;39.772;2.718;2022-08-19T05:54:21;11.27;;;3.00;;
51459;SDS011;37534;39.772;2.718;2022-08-19T05:56:48;7.70;;;3.33;;
51459;SDS011;37534;39.772;2.718;2022-08-19T05:59:15;3.25;;;2.72;;
51459;SDS011;37534;39.772;2.718;2022-08-19T06:01:43;3.88;;;2.90;;
51459;SDS011;37534;39.772;2.718;2022-08-19T06:04:11;5.55;;;2.85;;
51459;SDS011;37534;39.772;2.718;2022-08-19T06:06:44;5.55;;;2.20;;
51459;SDS011;37534;39.772;2.718;2022-08-19T06:09:11;2.70;;;2.50;;
51459;SDS011;37534;39.772;2.718;2022-08-19T06:11:39;4.20;;;3.05;;
51459;SDS011;37534;39.772;2.718;2022-08-19T06:14:09;4.00;;;2.70;;
51459;SDS011;37534;39.772;2.718;2022-08-19T06:16:37;6.45;;;3.20;;
51459;SDS011;37534;39.772;2.718;2022-08-19T06:19:05;3.35;;;2.28;;
51459;SDS011;37534;39.772;2.718;2022-08-19T06:21:33;13.07;;;3.00;;
51459;SDS011;37534;39.772;2.718;2022-08-19T06:24:02;13.70;;;2.75;;
51459;SDS011;37534;39.772;2.718;2022-08-19T06:26:29;7.35;;;3.53;;
51459;SDS011;37534;39.772;2.718;2022-08-19T06:28:55;7.32;;;3.70;;
51459;SDS011;37534;39.772;2.718;2022-08-19T06:31:23;10.73;;;3.90;;
51459;SDS011;37534;39.772;2.718;2022-08-19T06:33:51;4.40;;;3.30;;
51459;SDS011;37534;39.772;2.718;2022-08-19T06:38:42;39.67;;;13.27;;
51459;SDS011;37534;39.772;2.718;2022-08-19T06:41:08;53.70;;;30.63;;
51459;SDS011;37534;39.772;2.718;2022-08-19T06:43:34;43.08;;;28.48;;
51459;SDS011;37534;39.772;2.718;2022-08-19T06:46:01;35.42;;;23.70;;
51459;SDS011;37534;39.772;2.718;2022-08-19T06:48:28;40.70;;;33.88;;
51459;SDS011;37534;39.772;2.718;2022-08-19T06:50:54;23.67;;;21.05;;
51459;SDS011;37534;39.772;2.718;2022-08-19T06:53:20;13.98;;;11.00;;
51459;SDS011;37534;39.772;2.718;2022-08-19T06:55:46;15.10;;;10.77;;
51459;SDS011;37534;39.772;2.718;2022-08-19T06:58:12;21.80;;;13.35;;
51459;SDS011;37534;39.772;2.718;2022-08-19T07:00:37;29.00;;;16.10;;
51459;SDS011;37534;39.772;2.718;2022-08-19T07:03:04;21.40;;;16.45;;
51459;SDS011;37534;39.772;2.718;2022-08-19T07:05:29;17.80;;;11.70;;
51459;SDS011;37534;39.772;2.718;2022-08-19T07:07:55;31.42;;;21.38;;
51459;SDS011;37534;39.772;2.718;2022-08-19T07:10:22;116.25;;;86.88;;
51459;SDS011;37534;39.772;2.718;2022-08-19T07:12:47;181.00;;;126.57;;
51459;SDS011;37534;39.772;2.718;2022-08-19T07:15:15;148.40;;;104.88;;
51459;SDS011;37534;39.772;2.718;2022-08-19T07:17:41;65.97;;;49.65;;
51459;SDS011;37534;39.772;2.718;2022-08-19T07:20:08;46.25;;;35.65;;
51459;SDS011;37534;39.772;2.718;2022-08-19T07:22:35;56.17;;;39.80;;
51459;SDS011;37534;39.772;2.718;2022-08-19T07:25:05;74.57;;;50.95;;
51459;SDS011;37534;39.772;2.718;2022-08-19T07:27:32;52.65;;;39.97;;
51459;SDS011;37534;39.772;2.718;2022-08-19T07:29:59;24.40;;;16.92;;
51459;SDS011;37534;39.772;2.718;2022-08-19T07:32:25;11.60;;;7.82;;
51459;SDS011;37534;39.772;2.718;2022-08-19T07:34:51;4.18;;;2.47;;
51459;SDS011;37534;39.772;2.718;2022-08-19T07:37:17;2.15;;;1.95;;
51459;SDS011;37534;39.772;2.718;2022-08-19T07:39:43;4.18;;;3.63;;
51459;SDS011;37534;39.772;2.718;2022-08-19T07:42:09;6.95;;;4.72;;
51459;SDS011;37534;39.772;2.718;2022-08-19T07:44:35;12.77;;;5.85;;
51459;SDS011;37534;39.772;2.718;2022-08-19T07:47:02;10.73;;;7.63;;
51459;SDS011;37534;39.772;2.718;2022-08-19T07:49:29;43.55;;;21.98;;
51459;SDS011;37534;39.772;2.718;2022-08-19T07:51:56;39.45;;;24.50;;
51459;SDS011;37534;39.772;2.718;2022-08-19T07:54:27;17.23;;;13.00;;
51459;SDS011;37534;39.772;2.718;2022-08-19T07:56:55;33.70;;;21.13;;
51459;SDS011;37534;39.772;2.718;2022-08-19T07:59:22;13.18;;;9.85;;
51459;SDS011;37534;39.772;2.718;2022-08-19T08:01:48;9.75;;;6.47;;
51459;SDS011;37534;39.772;2.718;2022-08-19T08:04:15;2.90;;;1.80;;
51459;SDS011;37534;39.772;2.718;2022-08-19T08:07:00;15.60;;;2.55;;
51459;SDS011;37534;39.772;2.718;2022-08-19T08:09:44;5.47;;;3.55;;
51459;SDS011;37534;39.772;2.718;2022-08-19T08:12:12;4.03;;;2.60;;
51459;SDS011;37534;39.772;2.718;2022-08-19T08:17:12;4.32;;;1.75;;
51459;SDS011;37534;39.772;2.718;2022-08-19T08:19:39;7.50;;;1.27;;
51459;SDS011;37534;39.772;2.718;2022-08-19T08:22:08;2.08;;;1.30;;
51459;SDS011;37534;39.772;2.718;2022-08-19T08:24:55;2.53;;;1.25;;
51459;SDS011;37534;39.772;2.718;2022-08-19T08:27:23;1.65;;;1.55;;
51459;SDS011;37534;39.772;2.718;2022-08-19T08:29:49;7.10;;;1.55;;
51459;SDS011;37534;39.772;2.718;2022-08-19T08:32:15;1.65;;;1.35;;
51459;SDS011;37534;39.772;2.718;2022-08-19T08:34:41;2.72;;;2.17;;
51459;SDS011;37534;39.772;2.718;2022-08-19T08:37:07;2.40;;;1.75;;
51459;SDS011;37534;39.772;2.718;2022-08-19T08:39:33;1.92;;;1.48;;
51459;SDS011;37534;39.772;2.718;2022-08-19T08:42:07;1.45;;;1.27;;
51459;SDS011;37534;39.772;2.718;2022-08-19T08:47:31;3.50;;;1.77;;
51459;SDS011;37534;39.772;2.718;2022-08-19T08:50:04;1.88;;;1.40;;
51459;SDS011;37534;39.772;2.718;2022-08-19T08:52:39;1.60;;;1.50;;
51459;SDS011;37534;39.772;2.718;2022-08-19T08:55:12;7.32;;;1.20;;
51459;SDS011;37534;39.772;2.718;2022-08-19T09:00:15;1.60;;;1.50;;
51459;SDS011;37534;39.772;2.718;2022-08-19T09:02:44;1.33;;;1.15;;
